Time;durP1;ratioP1;P1;durP2;ratioP2;P2;SDS_P1;SDS_P2;PMS_P1;PMS_P2;Temp;Humidity;BMP_temperature;BMP_pressure;BME280_temperature;BME280_humidity;BME280_pressure;Samples;Min_cycle;Max_cycle;Signal;HPM_P1;HPM_P2
2021/06/03 00:01:51;;;;;;;5.45;2.97;;;15.60;82.30;;;;;;5130700;27;20188;-59
2021/06/03 00:04:17;;;;;;;3.80;2.47;;;15.50;82.80;;;;;;5131201;27;20168;-59
2021/06/03 00:06:44;;;;;;;9.43;3.22;;;15.50;82.70;;;;;;5130278;27;20540;-59
2021/06/03 00:09:10;;;;;;;6.20;2.38;;;15.40;82.90;;;;;;5133419;27;20168;-59
2021/06/03 00:11:37;;;;;;;8.07;3.00;;;15.40;83.20;;;;;;5106524;28;20177;-59
2021/06/03 00:14:04;;;;;;;6.65;2.85;;;15.30;82.50;;;;;;5131350;28;20195;-58
2021/06/03 00:16:33;;;;;;;5.00;2.80;;;15.30;81.80;;;;;;5110666;28;20567;-59
2021/06/03 00:19:07;;;;;;;6.63;2.78;;;15.20;82.00;;;;;;5131815;28;20172;-59
2021/06/03 00:21:33;;;;;;;4.57;2.80;;;15.20;82.10;;;;;;5130519;27;20176;-59
2021/06/03 00:24:00;;;;;;;7.80;2.75;;;15.20;81.90;;;;;;5132043;27;20515;-59
2021/06/03 00:26:26;;;;;;;7.82;2.75;;;15.10;82.40;;;;;;5130503;27;20184;-59
2021/06/03 00:28:52;;;;;;;2.95;2.40;;;15.10;82.60;;;;;;5135497;27;20535;-59
2021/06/03 00:31:18;;;;;;;5.88;3.03;;;15.00;82.50;;;;;;5131665;27;20176;-59
2021/06/03 00:33:44;;;;;;;7.30;2.95;;;15.00;83.00;;;;;;5139571;27;20195;-58
2021/06/03 00:36:10;;;;;;;12.00;2.70;;;14.90;82.90;;;;;;5130914;28;20220;-59
2021/06/03 00:38:37;;;;;;;5.20;2.67;;;14.90;82.20;;;;;;5132820;27;20624;-59
2021/06/03 00:41:04;;;;;;;6.95;2.42;;;14.90;81.20;;;;;;5123518;27;20187;-60
2021/06/03 00:43:31;;;;;;;4.88;2.50;;;14.90;80.90;;;;;;5135135;27;20179;-59
2021/06/03 00:45:57;;;;;;;7.72;2.60;;;15.00;80.10;;;;;;5132600;27;20207;-59
2021/06/03 00:48:23;;;;;;;5.25;2.95;;;14.90;80.20;;;;;;5115412;27;20184;-59
2021/06/03 00:50:51;;;;;;;4.38;2.90;;;14.90;80.30;;;;;;5135200;27;20200;-60
2021/06/03 00:53:17;;;;;;;4.10;2.40;;;14.80;79.80;;;;;;5117052;27;20174;-60
2021/06/03 00:55:46;;;;;;;6.13;2.53;;;14.80;80.20;;;;;;5114060;27;20215;-59
2021/06/03 00:58:13;;;;;;;3.22;2.50;;;14.80;78.70;;;;;;5135372;27;20175;-59
2021/06/03 01:00:39;;;;;;;8.93;2.65;;;14.70;80.00;;;;;;5138508;27;20180;-59
2021/06/03 01:03:05;;;;;;;5.20;2.50;;;14.70;79.10;;;;;;5134612;27;20180;-59
2021/06/03 01:05:42;;;;;;;8.45;2.67;;;14.70;79.00;;;;;;5140861;27;20176;-59
2021/06/03 01:08:15;;;;;;;8.02;2.58;;;14.60;78.50;;;;;;5133955;27;20526;-59
2021/06/03 01:10:55;;;;;;;4.80;2.53;;;14.50;78.50;;;;;;5133715;27;20191;-59
2021/06/03 01:13:34;;;;;;;5.25;2.65;;;14.50;79.10;;;;;;5135265;27;20636;-58
2021/06/03 01:16:02;;;;;;;10.23;2.75;;;14.50;78.20;;;;;;5110165;27;20203;-59
2021/06/03 01:21:51;;;;;;;4.05;2.55;;;14.40;77.50;;;;;;5142095;27;20167;-59
2021/06/03 01:24:25;;;;;;;7.70;2.65;;;14.50;77.60;;;;;;5131615;27;20186;-59
2021/06/03 01:26:57;;;;;;;3.83;2.78;;;14.50;77.80;;;;;;5137295;27;20190;-58
2021/06/03 01:29:24;;;;;;;5.35;2.47;;;14.40;78.10;;;;;;5143900;27;20180;-59
2021/06/03 01:31:50;;;;;;;3.92;2.60;;;14.40;78.20;;;;;;5130759;27;20546;-58
2021/06/03 01:34:18;;;;;;;7.75;2.50;;;14.40;78.70;;;;;;5113205;27;20636;-59
2021/06/03 01:36:44;;;;;;;6.10;2.75;;;14.30;78.90;;;;;;5136082;27;20655;-59
2021/06/03 01:39:10;;;;;;;3.35;2.50;;;14.30;79.20;;;;;;5106096;27;20179;-59
2021/06/03 01:41:36;;;;;;;6.78;2.55;;;14.30;79.00;;;;;;5115007;27;20520;-59
2021/06/03 01:44:03;;;;;;;14.75;2.92;;;14.30;79.20;;;;;;5129024;27;20254;-60
2021/06/03 01:46:29;;;;;;;4.07;2.50;;;14.30;79.00;;;;;;5119432;27;20176;-59
2021/06/03 01:48:56;;;;;;;7.30;2.70;;;14.30;79.50;;;;;;5094027;27;20168;-59
2021/06/03 01:51:22;;;;;;;6.57;2.70;;;14.30;79.50;;;;;;5115331;27;20211;-59
2021/06/03 01:53:48;;;;;;;8.85;3.20;;;14.30;79.40;;;;;;5112787;27;20195;-59
2021/06/03 01:56:15;;;;;;;5.78;2.30;;;14.20;79.30;;;;;;5132956;27;20215;-59
2021/06/03 01:58:41;;;;;;;5.90;3.03;;;14.20;79.20;;;;;;5114803;27;20167;-59
2021/06/03 02:01:08;;;;;;;7.60;2.60;;;14.20;78.70;;;;;;5133095;27;20168;-59
2021/06/03 02:03:34;;;;;;;7.15;2.42;;;14.20;78.70;;;;;;5137435;27;20183;-60
2021/06/03 02:06:00;;;;;;;4.55;2.80;;;14.20;78.20;;;;;;5132104;27;20517;-58
2021/06/03 02:08:26;;;;;;;4.35;2.55;;;14.20;78.30;;;;;;5135230;27;20183;-59
2021/06/03 02:10:52;;;;;;;5.32;2.78;;;14.20;78.30;;;;;;5132551;27;20188;-59
2021/06/03 02:13:46;;;;;;;5.00;2.20;;;14.10;78.50;;;;;;5110275;27;20176;-59
2021/06/03 02:16:22;;;;;;;3.70;2.55;;;14.10;78.60;;;;;;5110126;27;20211;-59
2021/06/03 02:18:48;;;;;;;6.72;2.40;;;14.10;78.50;;;;;;5132025;27;20206;-59
2021/06/03 02:21:15;;;;;;;6.85;3.22;;;14.00;78.80;;;;;;5136470;27;20172;-59
2021/06/03 02:23:41;;;;;;;3.58;2.63;;;14.00;78.00;;;;;;5114905;27;20172;-59
2021/06/03 02:26:08;;;;;;;4.30;2.42;;;14.00;78.30;;;;;;5114000;27;20167;-58
2021/06/03 02:28:34;;;;;;;4.97;2.20;;;14.00;77.80;;;;;;5114418;27;20171;-58
2021/06/03 02:31:00;;;;;;;3.60;2.47;;;13.90;78.00;;;;;;5103635;27;20171;-59
2021/06/03 02:33:30;;;;;;;3.63;2.40;;;13.90;78.20;;;;;;5132592;27;20211;-59
2021/06/03 02:35:56;;;;;;;5.45;2.53;;;13.90;78.00;;;;;;5111959;27;20219;-59
2021/06/03 02:38:29;;;;;;;3.85;2.20;;;13.80;78.80;;;;;;5132287;27;20187;-59
2021/06/03 02:40:58;;;;;;;5.03;2.38;;;13.80;78.10;;;;;;5133673;27;20513;-59
2021/06/03 02:43:24;;;;;;;4.93;2.58;;;13.90;77.60;;;;;;5132363;27;20160;-59
2021/06/03 02:45:51;;;;;;;4.85;2.53;;;13.90;77.70;;;;;;5132948;27;20176;-58
2021/06/03 02:48:17;;;;;;;3.70;2.10;;;13.80;77.90;;;;;;5113465;27;20198;-58
2021/06/03 02:50:43;;;;;;;4.95;2.60;;;13.80;77.80;;;;;;5132743;27;20196;-60
2021/06/03 02:53:09;;;;;;;4.78;2.20;;;13.90;77.80;;;;;;5131896;27;20536;-59
2021/06/03 02:55:36;;;;;;;4.28;2.75;;;13.80;77.80;;;;;;5131959;27;20171;-59
2021/06/03 02:58:02;;;;;;;3.58;2.22;;;13.80;77.70;;;;;;5132545;27;20180;-59
2021/06/03 03:00:30;;;;;;;4.63;2.40;;;13.80;77.90;;;;;;5131659;27;20207;-60
2021/06/03 03:02:58;;;;;;;3.88;2.42;;;13.80;77.90;;;;;;5131571;27;20196;-59
2021/06/03 03:05:24;;;;;;;4.45;2.10;;;13.80;77.80;;;;;;5132673;27;20188;-58
2021/06/03 03:07:50;;;;;;;4.15;2.20;;;13.80;78.00;;;;;;5128763;27;20168;-58
2021/06/03 03:10:30;;;;;;;7.22;2.63;;;13.80;78.00;;;;;;5143934;27;20207;-59
2021/06/03 03:12:56;;;;;;;8.82;2.58;;;13.90;77.10;;;;;;5132008;27;20163;-59
2021/06/03 03:15:23;;;;;;;4.15;2.40;;;13.90;77.10;;;;;;5084213;27;20690;-59
2021/06/03 03:17:49;;;;;;;3.30;2.30;;;13.90;77.00;;;;;;5111729;27;20199;-59
2021/06/03 03:20:17;;;;;;;3.13;2.38;;;13.90;76.70;;;;;;5132007;27;20183;-59
2021/06/03 03:22:43;;;;;;;5.32;2.42;;;13.90;77.00;;;;;;5131400;27;20183;-59
2021/06/03 03:25:10;;;;;;;2.67;2.13;;;13.90;77.00;;;;;;5132050;27;20164;-59
2021/06/03 03:27:40;;;;;;;7.13;2.50;;;13.90;77.30;;;;;;5132493;27;20191;-59
2021/06/03 03:30:07;;;;;;;7.00;2.10;;;14.00;77.10;;;;;;5114643;28;20176;-59
2021/06/03 03:32:34;;;;;;;10.68;2.53;;;14.00;76.80;;;;;;5131926;27;20220;-59
2021/06/03 03:35:00;;;;;;;4.90;2.20;;;14.00;77.00;;;;;;5132131;27;20207;-58
2021/06/03 03:37:30;;;;;;;4.10;2.35;;;14.00;76.40;;;;;;5114403;28;20541;-59
2021/06/03 03:39:56;;;;;;;3.65;2.45;;;14.00;76.60;;;;;;5132624;27;20535;-59
2021/06/03 03:42:23;;;;;;;3.72;2.00;;;14.00;76.90;;;;;;5132866;28;20175;-59
2021/06/03 03:44:50;;;;;;;7.88;2.03;;;14.10;76.40;;;;;;5132887;27;20188;-58
2021/06/03 03:47:16;;;;;;;6.03;2.03;;;14.10;77.00;;;;;;5132593;27;20183;-58
2021/06/03 03:49:42;;;;;;;6.90;2.38;;;14.10;76.40;;;;;;5132711;28;20164;-58
2021/06/03 03:52:08;;;;;;;3.85;2.17;;;14.20;76.50;;;;;;5132321;27;20210;-59
2021/06/03 03:54:34;;;;;;;5.30;2.42;;;14.10;76.30;;;;;;5113507;28;20180;-59
2021/06/03 03:57:00;;;;;;;4.55;2.38;;;14.20;76.30;;;;;;5132051;28;20207;-59
2021/06/03 03:59:26;;;;;;;3.40;2.03;;;14.20;76.10;;;;;;5132096;27;20176;-58
2021/06/03 04:01:54;;;;;;;6.75;2.25;;;14.20;76.50;;;;;;5118337;27;20179;-57
2021/06/03 04:04:21;;;;;;;4.72;2.10;;;14.30;76.60;;;;;;5138163;27;20184;-59
2021/06/03 04:06:47;;;;;;;5.05;2.30;;;14.30;76.60;;;;;;5137813;27;20956;-59
2021/06/03 04:09:13;;;;;;;4.28;2.20;;;14.30;76.60;;;;;;5116327;27;20176;-59
2021/06/03 04:11:39;;;;;;;6.32;2.40;;;14.40;75.90;;;;;;5137779;27;20535;-58
2021/06/03 04:14:05;;;;;;;9.25;2.00;;;14.50;76.10;;;;;;5141849;27;20739;-59
2021/06/03 04:16:32;;;;;;;4.28;2.15;;;14.50;75.90;;;;;;5143921;27;20206;-59
2021/06/03 04:18:58;;;;;;;6.45;2.85;;;14.50;75.50;;;;;;5145411;27;20175;-58
2021/06/03 04:21:24;;;;;;;6.75;2.17;;;14.60;75.70;;;;;;5144256;27;20172;-58
2021/06/03 04:23:50;;;;;;;4.28;2.20;;;14.70;76.40;;;;;;5139343;27;20178;-59
2021/06/03 04:26:16;;;;;;;4.07;2.45;;;14.80;75.60;;;;;;5141325;27;20183;-57
2021/06/03 04:28:42;;;;;;;8.60;2.15;;;14.80;76.00;;;;;;5144333;27;20187;-58
2021/06/03 04:31:08;;;;;;;7.53;2.10;;;14.90;74.90;;;;;;5142672;27;20176;-57
2021/06/03 04:33:35;;;;;;;4.60;2.30;;;15.00;75.00;;;;;;5146452;27;20210;-57
2021/06/03 04:36:01;;;;;;;8.57;2.25;;;15.00;74.90;;;;;;5140680;27;20175;-58
2021/06/03 04:38:27;;;;;;;7.22;2.30;;;15.00;75.10;;;;;;5144866;27;20623;-58
2021/06/03 04:40:54;;;;;;;4.60;2.53;;;15.10;74.90;;;;;;5143261;27;20241;-57
2021/06/03 04:43:20;;;;;;;4.78;2.50;;;15.10;74.60;;;;;;5145201;27;20195;-57
2021/06/03 04:45:47;;;;;;;6.22;2.22;;;15.10;75.10;;;;;;5142914;27;20659;-57
2021/06/03 04:48:13;;;;;;;3.85;2.50;;;15.10;74.80;;;;;;5121948;27;20176;-58
2021/06/03 04:50:39;;;;;;;5.97;2.30;;;15.10;75.00;;;;;;5128145;27;20196;-58
2021/06/03 04:53:06;;;;;;;19.35;2.90;;;15.10;75.20;;;;;;5143780;27;20183;-59
2021/06/03 04:55:32;;;;;;;6.00;2.30;;;15.00;75.90;;;;;;5148281;27;20168;-59
2021/06/03 04:57:58;;;;;;;5.38;2.40;;;15.00;74.70;;;;;;5144556;27;20211;-59
2021/06/03 05:00:28;;;;;;;3.33;2.03;;;15.10;75.40;;;;;;5142529;27;20160;-59
2021/06/03 05:02:54;;;;;;;4.85;2.22;;;15.20;74.80;;;;;;5144452;27;20199;-59
2021/06/03 05:05:21;;;;;;;6.43;2.40;;;15.30;74.30;;;;;;5141289;27;20183;-58
2021/06/03 05:07:47;;;;;;;9.02;2.20;;;15.40;74.60;;;;;;5145523;27;20183;-58
2021/06/03 05:10:14;;;;;;;5.80;1.88;;;15.50;74.60;;;;;;5143835;27;20195;-58
2021/06/03 05:12:40;;;;;;;5.70;2.30;;;15.50;74.20;;;;;;5145645;27;20182;-57
2021/06/03 05:15:06;;;;;;;6.00;2.45;;;15.50;74.00;;;;;;5142336;27;20168;-58
2021/06/03 05:17:33;;;;;;;5.68;2.30;;;15.40;74.90;;;;;;5122599;27;20207;-59
2021/06/03 05:20:00;;;;;;;4.57;2.20;;;15.30;74.20;;;;;;5140970;27;20184;-58
2021/06/03 05:22:26;;;;;;;6.30;2.40;;;15.40;74.60;;;;;;5143563;27;20188;-59
2021/06/03 05:24:52;;;;;;;9.95;2.40;;;15.40;75.20;;;;;;5138886;27;20639;-59
2021/06/03 05:27:18;;;;;;;306.05;17.02;;;15.30;74.80;;;;;;5140308;27;20177;-58
2021/06/03 05:29:44;;;;;;;10.35;2.72;;;15.30;75.10;;;;;;5122829;27;20192;-58
2021/06/03 05:32:11;;;;;;;14.85;2.50;;;15.30;75.00;;;;;;5140451;27;20216;-58
2021/06/03 05:34:37;;;;;;;6.18;2.40;;;15.40;74.80;;;;;;5145956;27;20171;-59
2021/06/03 05:37:03;;;;;;;5.88;2.60;;;15.50;74.20;;;;;;5142576;27;20205;-58
2021/06/03 05:39:29;;;;;;;12.88;2.35;;;15.50;75.40;;;;;;5141041;27;20597;-58
2021/06/03 05:41:56;;;;;;;5.38;2.30;;;15.50;75.10;;;;;;5141678;27;20176;-58
2021/06/03 05:44:22;;;;;;;5.03;2.35;;;15.50;75.10;;;;;;5144396;27;20179;-58
2021/06/03 05:46:48;;;;;;;6.43;2.42;;;15.80;75.00;;;;;;5144640;27;20186;-58
2021/06/03 05:49:14;;;;;;;12.88;2.60;;;15.90;74.10;;;;;;5132812;27;20180;-58
2021/06/03 05:51:40;;;;;;;10.35;2.30;;;16.10;73.00;;;;;;5134162;27;20199;-58
2021/06/03 05:54:07;;;;;;;8.40;2.53;;;16.30;72.70;;;;;;5118635;27;20662;-58
2021/06/03 05:56:33;;;;;;;7.13;2.10;;;16.30;72.50;;;;;;5115187;27;20195;-58
2021/06/03 05:59:00;;;;;;;6.95;2.40;;;16.40;72.20;;;;;;5126824;27;20194;-58
2021/06/03 06:01:27;;;;;;;4.68;2.60;;;16.40;73.10;;;;;;5137606;27;20658;-58
2021/06/03 06:06:31;;;;;;;56.60;5.53;;;16.30;72.40;;;;;;5146592;27;20645;-71
2021/06/03 06:08:59;;;;;;;9.00;2.30;;;16.20;72.80;;;;;;5136554;27;20524;-59
2021/06/03 06:11:27;;;;;;;25.58;3.38;;;16.10;73.50;;;;;;5111421;27;20172;-58
2021/06/03 06:13:53;;;;;;;20.75;2.55;;;16.10;73.10;;;;;;5111383;27;20187;-58
2021/06/03 06:16:19;;;;;;;4.35;2.20;;;16.20;73.20;;;;;;5131882;27;20183;-59
2021/06/03 06:18:45;;;;;;;9.10;2.10;;;16.40;72.20;;;;;;5126449;27;20172;-59
2021/06/03 06:21:14;;;;;;;11.00;2.58;;;16.60;71.60;;;;;;5112872;27;20176;-58
2021/06/03 06:23:40;;;;;;;23.90;3.15;;;16.90;71.60;;;;;;5118574;27;20164;-59
2021/06/03 06:26:07;;;;;;;12.15;2.97;;;16.90;70.90;;;;;;5128845;27;20854;-59
2021/06/03 06:28:33;;;;;;;9.38;2.30;;;16.90;71.70;;;;;;5137929;27;20163;-59
2021/06/03 06:30:59;;;;;;;8.63;2.22;;;16.90;70.10;;;;;;5140613;27;20183;-58
2021/06/03 06:33:26;;;;;;;11.32;2.72;;;16.90;71.40;;;;;;5142027;27;20215;-59
2021/06/03 06:35:52;;;;;;;7.05;2.30;;;17.00;70.10;;;;;;5138056;27;20184;-58
2021/06/03 06:38:19;;;;;;;7.13;2.65;;;17.00;70.30;;;;;;5134470;27;20200;-58
2021/06/03 06:40:45;;;;;;;10.20;3.17;;;16.90;70.60;;;;;;5138992;27;20528;-59
2021/06/03 06:43:11;;;;;;;4.60;2.20;;;17.00;69.80;;;;;;5140402;27;20183;-59
2021/06/03 06:45:38;;;;;;;9.00;2.40;;;17.00;69.50;;;;;;5134233;27;20188;-59
2021/06/03 06:48:08;;;;;;;10.10;2.50;;;17.00;69.40;;;;;;5134734;27;20191;-58
2021/06/03 06:50:37;;;;;;;3.20;2.05;;;17.00;70.00;;;;;;5117927;27;20191;-57
2021/06/03 06:53:04;;;;;;;6.68;2.10;;;17.00;69.40;;;;;;5117495;27;20172;-58
2021/06/03 06:55:30;;;;;;;21.00;2.95;;;17.10;70.00;;;;;;5136535;27;20171;-58
2021/06/03 06:57:58;;;;;;;4.32;2.22;;;17.10;69.30;;;;;;5134941;27;20208;-58
2021/06/03 07:00:26;;;;;;;7.32;2.17;;;17.10;69.70;;;;;;5132916;27;20176;-58
2021/06/03 07:02:52;;;;;;;7.85;2.25;;;17.10;68.80;;;;;;5131735;27;20536;-58
2021/06/03 07:05:18;;;;;;;4.60;2.17;;;17.20;69.00;;;;;;5131817;27;20199;-59
2021/06/03 07:07:44;;;;;;;15.02;2.78;;;17.20;69.30;;;;;;5133004;27;20172;-58
2021/06/03 07:10:11;;;;;;;5.13;2.40;;;17.30;68.50;;;;;;5132279;27;21546;-58
2021/06/03 07:12:37;;;;;;;8.70;2.17;;;17.40;68.40;;;;;;5113659;27;20179;-59
2021/06/03 07:15:05;;;;;;;50.00;5.53;;;17.60;69.50;;;;;;5116728;27;20190;-58
2021/06/03 07:17:31;;;;;;;33.05;2.95;;;17.90;67.70;;;;;;5136317;27;20218;-58
2021/06/03 07:19:57;;;;;;;10.63;3.33;;;18.00;67.20;;;;;;5140795;27;20930;-58
2021/06/03 07:22:23;;;;;;;5.63;2.33;;;18.00;67.70;;;;;;5137687;27;20194;-58
2021/06/03 07:24:49;;;;;;;3.35;2.30;;;18.20;65.40;;;;;;5139305;27;20168;-58
2021/06/03 07:27:15;;;;;;;5.38;2.20;;;18.40;65.80;;;;;;5132264;27;20176;-58
2021/06/03 07:29:41;;;;;;;3.83;2.33;;;18.70;66.50;;;;;;5132259;27;20176;-58
2021/06/03 07:32:07;;;;;;;2.70;1.90;;;18.80;64.80;;;;;;5130081;28;20219;-59
2021/06/03 07:34:34;;;;;;;3.55;2.15;;;19.00;65.80;;;;;;5131358;28;20172;-58
2021/06/03 07:37:00;;;;;;;4.70;2.20;;;19.00;64.30;;;;;;5132572;28;20204;-58
2021/06/03 07:39:27;;;;;;;6.43;2.10;;;18.80;64.80;;;;;;5132166;28;20663;-59
2021/06/03 07:41:53;;;;;;;4.72;2.17;;;18.80;64.90;;;;;;5132399;27;20196;-57
2021/06/03 07:44:19;;;;;;;20.77;2.95;;;19.10;63.80;;;;;;5131452;28;20175;-58
2021/06/03 07:46:45;;;;;;;6.03;1.90;;;19.30;63.40;;;;;;5132350;27;20172;-58
2021/06/03 07:49:13;;;;;;;12.13;2.80;;;19.50;62.90;;;;;;5117719;27;20535;-58
2021/06/03 07:51:42;;;;;;;11.13;2.35;;;19.60;61.30;;;;;;5118982;27;20199;-58
2021/06/03 07:54:09;;;;;;;21.55;2.30;;;19.80;61.70;;;;;;5094628;28;20184;-58
2021/06/03 07:56:35;;;;;;;6.72;2.63;;;20.00;62.10;;;;;;5134700;27;20179;-58
2021/06/03 07:59:02;;;;;;;10.50;2.00;;;20.10;60.10;;;;;;5136074;27;20574;-58
2021/06/03 08:01:28;;;;;;;8.32;2.20;;;20.20;59.60;;;;;;5117649;27;20179;-58
2021/06/03 08:03:55;;;;;;;7.72;1.98;;;20.30;59.90;;;;;;5137281;27;20191;-59
2021/06/03 08:06:21;;;;;;;6.22;2.10;;;20.50;59.60;;;;;;5135417;27;20180;-59
2021/06/03 08:08:47;;;;;;;11.50;2.15;;;20.70;59.80;;;;;;5135106;27;20191;-58
2021/06/03 08:11:13;;;;;;;66.03;7.47;;;21.00;58.70;;;;;;5135985;27;20242;-57
2021/06/03 08:13:40;;;;;;;6.88;2.13;;;21.10;58.60;;;;;;5141791;27;20183;-58
2021/06/03 08:16:06;;;;;;;8.48;2.15;;;21.30;57.90;;;;;;5147815;27;20176;-60
2021/06/03 08:18:32;;;;;;;10.13;2.08;;;21.40;56.70;;;;;;5140091;27;20207;-60
2021/06/03 08:20:59;;;;;;;5.13;2.28;;;21.50;56.80;;;;;;5132413;27;20187;-61
2021/06/03 08:23:27;;;;;;;9.35;1.92;;;21.60;56.10;;;;;;5097153;27;20640;-61
2021/06/03 08:25:53;;;;;;;21.08;3.13;;;21.70;56.30;;;;;;5132914;27;20167;-61
2021/06/03 08:28:19;;;;;;;6.55;2.42;;;21.90;55.00;;;;;;5133107;27;20187;-70
2021/06/03 08:30:45;;;;;;;8.13;1.83;;;22.20;55.20;;;;;;5136098;27;20158;-72
2021/06/03 08:33:11;;;;;;;41.05;4.10;;;22.70;54.90;;;;;;5144804;27;20222;-71
2021/06/03 08:35:37;;;;;;;4.50;1.65;;;23.40;53.20;;;;;;5126181;27;20540;-70
2021/06/03 08:38:05;;;;;;;3.80;1.92;;;24.10;52.20;;;;;;5124317;27;20579;-70
2021/06/03 08:40:43;;;;;;;8.32;1.75;;;24.50;49.20;;;;;;5144641;27;20546;-69
2021/06/03 08:43:10;;;;;;;3.08;1.40;;;25.00;48.20;;;;;;5139065;27;20607;-71
2021/06/03 08:45:37;;;;;;;8.68;1.77;;;25.60;46.40;;;;;;5142396;27;20175;-72
2021/06/03 08:48:04;;;;;;;2.45;1.55;;;25.90;43.80;;;;;;5140195;27;20644;-72
2021/06/03 08:50:32;;;;;;;4.82;1.58;;;26.30;44.00;;;;;;5144617;27;20553;-71
2021/06/03 08:52:58;;;;;;;2.47;1.33;;;26.50;43.40;;;;;;5116955;27;20176;-70
2021/06/03 08:58:11;;;;;;;2.95;1.27;;;26.50;42.00;;;;;;5125782;27;20585;-70
2021/06/03 09:00:37;;;;;;;7.53;1.73;;;26.90;42.20;;;;;;5116618;27;20176;-69
2021/06/03 09:03:04;;;;;;;6.15;1.40;;;26.90;41.40;;;;;;5135355;27;20194;-71
2021/06/03 09:05:30;;;;;;;2.85;1.42;;;27.20;40.60;;;;;;5135193;27;20168;-68
2021/06/03 09:07:56;;;;;;;3.28;1.30;;;27.20;41.80;;;;;;5134483;27;20180;-71
2021/06/03 09:10:27;;;;;;;11.90;1.40;;;27.60;39.90;;;;;;5100242;27;20178;-69
2021/06/03 09:13:11;;;;;;;8.57;1.75;;;28.40;41.80;;;;;;5144780;27;20167;-65
2021/06/03 09:15:38;;;;;;;144.18;12.95;;;28.50;38.10;;;;;;5138990;27;20172;-66
2021/06/03 09:18:08;;;;;;;6.57;1.40;;;28.50;36.80;;;;;;5125922;27;20226;-62
2021/06/03 09:20:35;;;;;;;5.00;1.50;;;28.50;37.40;;;;;;5118811;27;20546;-59
2021/06/03 09:23:02;;;;;;;5.93;1.55;;;28.70;38.10;;;;;;5138034;27;20204;-60
2021/06/03 09:25:35;;;;;;;4.47;1.50;;;28.90;36.40;;;;;;5139006;27;20183;-60
2021/06/03 09:28:23;;;;;;;6.53;1.40;;;28.90;34.90;;;;;;5136670;27;20190;-62
2021/06/03 09:30:58;;;;;;;3.38;1.38;;;28.70;35.20;;;;;;5140919;27;20168;-62
2021/06/03 09:33:44;;;;;;;10.00;1.60;;;28.80;35.30;;;;;;5138543;27;20215;-61
2021/06/03 09:36:19;;;;;;;5.18;1.35;;;28.90;34.20;;;;;;5126795;27;20658;-61
2021/06/03 09:39:17;;;;;;;4.22;1.58;;;28.70;35.60;;;;;;5136809;27;20210;-61
2021/06/03 09:41:52;;;;;;;7.97;1.80;;;29.10;35.80;;;;;;5123284;27;20176;-61
2021/06/03 09:44:22;;;;;;;4.35;1.75;;;29.00;35.50;;;;;;5132221;27;20171;-61
2021/06/03 09:46:53;;;;;;;10.20;1.70;;;28.90;34.30;;;;;;5132684;27;20168;-60
2021/06/03 09:49:27;;;;;;;204.32;13.25;;;28.30;36.40;;;;;;5132362;27;20167;-60
2021/06/03 09:51:58;;;;;;;74.85;7.90;;;28.20;36.80;;;;;;5133925;27;20160;-62
2021/06/03 09:54:25;;;;;;;16.00;2.30;;;27.80;36.20;;;;;;5134016;27;20175;-62
2021/06/03 09:56:53;;;;;;;5.75;1.48;;;28.30;37.10;;;;;;5133768;27;20627;-61
2021/06/03 09:59:36;;;;;;;5.57;1.30;;;28.10;35.70;;;;;;5133716;27;20591;-61
2021/06/03 10:02:10;;;;;;;9.48;1.67;;;28.10;37.70;;;;;;5132458;27;20199;-61
2021/06/03 10:04:46;;;;;;;7.22;1.75;;;28.20;36.10;;;;;;5113902;27;20615;-61
2021/06/03 10:07:22;;;;;;;7.13;1.67;;;28.00;35.90;;;;;;5139049;27;20191;-62
2021/06/03 10:10:04;;;;;;;21.40;2.10;;;27.60;36.00;;;;;;5142150;27;20171;-61
2021/06/03 10:12:34;;;;;;;6.43;1.90;;;27.50;35.80;;;;;;5143618;27;20180;-60
2021/06/03 10:15:23;;;;;;;19.50;2.05;;;27.10;36.00;;;;;;5140284;27;20159;-62
2021/06/03 10:17:53;;;;;;;4.13;1.77;;;27.10;36.70;;;;;;5120244;27;20212;-62
2021/06/03 10:20:23;;;;;;;4.88;2.10;;;27.40;36.70;;;;;;5120241;27;20179;-60
2021/06/03 10:22:52;;;;;;;6.28;2.20;;;27.30;37.50;;;;;;5146246;27;20174;-60
2021/06/03 10:25:23;;;;;;;20.13;2.97;;;27.10;36.00;;;;;;5143109;27;20179;-61
2021/06/03 10:27:57;;;;;;;4.80;2.58;;;25.80;38.20;;;;;;5140003;27;20168;-61
2021/06/03 10:30:49;;;;;;;10.65;2.50;;;25.60;38.80;;;;;;5121845;27;20168;-61
2021/06/03 10:33:17;;;;;;;9.45;2.20;;;26.20;39.30;;;;;;5133465;27;20227;-61
2021/06/03 10:35:45;;;;;;;11.73;2.15;;;26.50;37.40;;;;;;5133089;27;20180;-60
2021/06/03 10:38:12;;;;;;;4.72;1.88;;;26.40;38.40;;;;;;5133243;27;20195;-61
2021/06/03 10:40:41;;;;;;;17.67;2.92;;;27.40;39.30;;;;;;5133473;27;20184;-63
2021/06/03 10:43:07;;;;;;;75.72;6.20;;;27.70;36.60;;;;;;5133537;27;20172;-60
2021/06/03 10:45:34;;;;;;;7.35;2.40;;;27.30;38.30;;;;;;5128663;27;20624;-60
2021/06/03 10:48:00;;;;;;;14.48;2.60;;;26.90;37.60;;;;;;5137460;27;20176;-62
2021/06/03 10:50:29;;;;;;;26.98;2.72;;;27.60;38.00;;;;;;5136729;27;20224;-61
2021/06/03 10:52:55;;;;;;;42.72;5.22;;;28.10;36.50;;;;;;5141685;27;20166;-61
2021/06/03 10:55:29;;;;;;;9.40;2.40;;;28.80;35.90;;;;;;5118450;27;20179;-62
2021/06/03 10:58:00;;;;;;;5.43;2.17;;;29.90;35.90;;;;;;5133266;27;20551;-61
2021/06/03 11:00:36;;;;;;;11.57;2.60;;;30.10;33.30;;;;;;5124915;27;20897;-61
2021/06/03 11:03:17;;;;;;;8.10;2.47;;;28.80;35.30;;;;;;5130473;27;20184;-60
2021/06/03 11:05:47;;;;;;;160.32;8.07;;;28.70;36.60;;;;;;5132727;27;20182;-61
2021/06/03 11:08:28;;;;;;;12.35;2.65;;;28.30;34.90;;;;;;5131985;27;20184;-61
2021/06/03 11:11:09;;;;;;;46.47;4.20;;;27.70;36.50;;;;;;5130907;27;20617;-60
2021/06/03 11:13:45;;;;;;;17.30;2.28;;;28.20;38.10;;;;;;5128949;27;20164;-61
2021/06/03 11:16:12;;;;;;;20.92;3.67;;;27.60;35.30;;;;;;5126819;27;20559;-62
2021/06/03 11:18:44;;;;;;;10.40;2.10;;;26.80;37.00;;;;;;5114363;28;20226;-61
2021/06/03 11:24:17;;;;;;;8.93;2.20;;;26.90;37.30;;;;;;5135213;27;20180;-61
2021/06/03 11:26:43;;;;;;;6.32;2.10;;;26.50;39.20;;;;;;5135988;27;20643;-61
2021/06/03 11:29:17;;;;;;;5.38;2.30;;;26.80;39.50;;;;;;5125621;27;20181;-62
2021/06/03 11:31:44;;;;;;;5.13;2.10;;;27.10;38.60;;;;;;5126673;27;20187;-62
2021/06/03 11:34:21;;;;;;;10.35;2.60;;;27.30;39.00;;;;;;5129112;27;20716;-62
2021/06/03 11:37:01;;;;;;;36.50;2.92;;;27.90;38.50;;;;;;5093960;28;20195;-62
2021/06/03 11:39:33;;;;;;;15.10;2.20;;;27.50;37.60;;;;;;5129982;28;20199;-62
2021/06/03 11:42:15;;;;;;;6.40;2.28;;;27.40;36.80;;;;;;5133066;27;20183;-62
2021/06/03 11:45:12;;;;;;;11.80;2.65;;;27.00;36.60;;;;;;5132920;28;20531;-62
2021/06/03 11:47:38;;;;;;;22.77;3.08;;;27.60;38.40;;;;;;5132202;28;20530;-61
2021/06/03 11:50:04;;;;;;;13.35;2.70;;;27.40;38.00;;;;;;5130696;28;20672;-63
2021/06/03 11:52:30;;;;;;;57.75;3.83;;;27.40;38.80;;;;;;5132239;28;20176;-61
2021/06/03 11:55:01;;;;;;;100.97;6.57;;;27.70;38.90;;;;;;5114204;28;20198;-63
2021/06/03 11:57:28;;;;;;;14.45;2.85;;;26.90;38.80;;;;;;5124477;28;20534;-63
2021/06/03 12:00:01;;;;;;;28.23;3.03;;;26.20;38.60;;;;;;5131867;28;20187;-63
2021/06/03 12:02:40;;;;;;;5.90;2.58;;;25.70;39.30;;;;;;5132401;28;20175;-63
2021/06/03 12:05:09;;;;;;;24.00;3.80;;;25.70;39.40;;;;;;5132714;28;20522;-62
2021/06/03 12:07:46;;;;;;;13.48;3.47;;;25.50;40.10;;;;;;5132137;28;20176;-62
2021/06/03 12:10:14;;;;;;;6.72;2.53;;;25.90;41.80;;;;;;5114177;28;20172;-62
2021/06/03 12:12:40;;;;;;;42.90;4.20;;;26.30;40.30;;;;;;5139500;27;20651;-63
2021/06/03 12:15:16;;;;;;;14.05;3.08;;;26.20;39.70;;;;;;5139379;27;20183;-63
2021/06/03 12:17:43;;;;;;;8.25;2.58;;;25.90;40.50;;;;;;5135573;27;20175;-63
2021/06/03 12:20:12;;;;;;;15.50;2.75;;;25.60;38.50;;;;;;5137590;27;20257;-63
2021/06/03 12:22:38;;;;;;;4.43;2.60;;;25.30;40.70;;;;;;5142075;27;20172;-63
2021/06/03 12:25:05;;;;;;;5.43;2.53;;;25.20;41.50;;;;;;5103012;27;20210;-63
2021/06/03 12:27:36;;;;;;;17.85;3.05;;;25.10;40.70;;;;;;5122138;27;20180;-63
2021/06/03 12:30:29;;;;;;;28.50;3.70;;;25.20;42.20;;;;;;5135133;27;20164;-63
2021/06/03 12:33:02;;;;;;;6.68;2.53;;;25.30;41.20;;;;;;5136438;27;20212;-63
2021/06/03 12:35:44;;;;;;;6.05;2.70;;;25.00;41.80;;;;;;5141869;27;20710;-63
2021/06/03 12:38:11;;;;;;;10.02;2.67;;;24.80;40.80;;;;;;5141018;27;20203;-62
2021/06/03 12:40:37;;;;;;;12.60;2.78;;;24.50;41.20;;;;;;5109246;27;20183;-63
2021/06/03 12:43:08;;;;;;;6.07;2.70;;;24.40;41.60;;;;;;5117045;27;20184;-63
2021/06/03 12:45:37;;;;;;;7.38;3.00;;;24.30;42.30;;;;;;5135092;27;20616;-62
2021/06/03 12:48:05;;;;;;;14.75;3.05;;;24.30;42.00;;;;;;5135816;27;20176;-66
2021/06/03 12:50:31;;;;;;;28.30;3.67;;;24.20;42.20;;;;;;5135272;27;20694;-65
2021/06/03 12:52:57;;;;;;;41.95;4.03;;;24.10;43.80;;;;;;5114751;27;20188;-65
2021/06/03 12:55:25;;;;;;;5.03;2.63;;;24.20;42.30;;;;;;5134157;27;20647;-64
2021/06/03 12:57:51;;;;;;;3.92;2.80;;;24.10;43.20;;;;;;5117166;27;20179;-65
2021/06/03 13:00:25;;;;;;;6.25;3.00;;;24.10;44.20;;;;;;5135404;27;20180;-64
2021/06/03 13:02:51;;;;;;;3.70;2.70;;;24.10;43.90;;;;;;5135888;27;20176;-63